createdAt,value
2018-12-06T00:01:45.204Z,95.73
2018-12-06T00:04:13.684Z,95.23
2018-12-06T00:06:42.172Z,89.63
2018-12-06T00:09:10.640Z,91.63
2018-12-06T00:11:39.208Z,90.63
2018-12-06T00:14:08.465Z,92.40
2018-12-06T00:16:36.917Z,90.67
2018-12-06T00:19:10.095Z,97.03
2018-12-06T00:21:38.611Z,93.17
2018-12-06T00:24:07.125Z,96.30
2018-12-06T00:26:35.624Z,95.20
2018-12-06T00:29:04.157Z,94.10
2018-12-06T00:31:32.616Z,98.80
2018-12-06T00:34:01.222Z,103.27
2018-12-06T00:36:29.787Z,96.07
2018-12-06T00:38:58.439Z,104.93
2018-12-06T00:41:27.027Z,96.80
2018-12-06T00:43:55.480Z,99.33
2018-12-06T00:46:23.946Z,104.53
2018-12-06T00:48:52.411Z,97.80
2018-12-06T00:51:20.875Z,100.93
2018-12-06T00:53:49.555Z,107.97
2018-12-06T00:56:18.042Z,105.73
2018-12-06T00:58:46.534Z,102.97
2018-12-06T01:02:39.587Z,100.93
2018-12-06T01:05:08.211Z,91.93
2018-12-06T01:07:36.664Z,102.73
2018-12-06T01:10:06.462Z,102.97
2018-12-06T01:12:34.970Z,98.90
2018-12-06T01:15:03.979Z,89.27
2018-12-06T01:17:32.601Z,85.77
2018-12-06T01:20:01.037Z,85.60
2018-12-06T01:22:29.519Z,78.07
2018-12-06T01:24:58.047Z,84.27
2018-12-06T01:27:26.508Z,76.00
2018-12-06T01:29:55.008Z,86.70
2018-12-06T01:32:23.672Z,82.57
2018-12-06T01:34:52.273Z,81.20
2018-12-06T01:37:20.824Z,81.00
2018-12-06T01:39:49.354Z,81.93
2018-12-06T01:42:17.917Z,84.67
2018-12-06T01:44:46.378Z,79.63
2018-12-06T01:47:14.915Z,82.57
2018-12-06T01:49:43.408Z,84.37
2018-12-06T01:52:12.018Z,93.00
2018-12-06T01:54:40.735Z,91.23
2018-12-06T01:57:09.193Z,93.57
2018-12-06T01:59:37.752Z,96.97
2018-12-06T02:02:06.302Z,90.17
2018-12-06T02:04:34.765Z,99.37
2018-12-06T02:07:03.243Z,101.97
2018-12-06T02:09:31.752Z,92.00
2018-12-06T02:12:00.370Z,98.47
2018-12-06T02:14:28.977Z,96.93
2018-12-06T02:16:57.744Z,104.73
2018-12-06T02:19:26.181Z,117.00
2018-12-06T02:21:54.631Z,117.93
2018-12-06T02:24:23.141Z,118.17
2018-12-06T02:26:51.741Z,114.37
2018-12-06T02:29:20.212Z,143.97
2018-12-06T02:31:48.865Z,129.93
2018-12-06T02:34:17.305Z,196.77
2018-12-06T02:36:45.746Z,159.67
2018-12-06T02:39:14.229Z,114.40
2018-12-06T02:41:42.710Z,137.87
2018-12-06T02:44:11.438Z,177.40
2018-12-06T02:46:39.929Z,222.13
2018-12-06T02:49:08.413Z,173.73
2018-12-06T02:51:37.046Z,174.43
2018-12-06T02:54:05.539Z,166.33
2018-12-06T02:56:34.098Z,181.93
2018-12-06T02:59:02.563Z,194.87
2018-12-06T03:01:31.050Z,119.50
2018-12-06T03:03:59.529Z,145.03
2018-12-06T03:06:28.027Z,186.63
2018-12-06T03:08:56.525Z,164.60
2018-12-06T03:11:24.997Z,139.33
2018-12-06T03:13:53.472Z,134.27
2018-12-06T03:16:21.968Z,124.33
2018-12-06T03:18:50.408Z,138.90
2018-12-06T03:21:18.857Z,123.60
2018-12-06T03:23:47.391Z,114.00
2018-12-06T03:26:15.875Z,109.47
2018-12-06T03:28:44.429Z,98.60
2018-12-06T03:31:12.936Z,95.67
2018-12-06T03:33:41.647Z,84.90
2018-12-06T03:36:10.191Z,93.47
2018-12-06T03:38:38.657Z,92.63
2018-12-06T03:41:07.452Z,93.03
2018-12-06T03:43:35.942Z,105.33
2018-12-06T03:46:04.471Z,115.80
2018-12-06T03:48:32.984Z,118.57
2018-12-06T03:51:01.480Z,110.43
2018-12-06T03:53:30.324Z,130.57
2018-12-06T03:55:58.833Z,148.40
2018-12-06T03:58:27.256Z,133.57
2018-12-06T04:00:55.764Z,141.30
2018-12-06T04:03:24.217Z,125.90
2018-12-06T04:05:52.972Z,154.33
2018-12-06T04:08:21.533Z,128.73
2018-12-06T04:10:49.977Z,144.77
2018-12-06T04:13:18.440Z,129.10
2018-12-06T04:15:46.974Z,122.77
2018-12-06T04:18:15.477Z,130.73
2018-12-06T04:20:43.934Z,149.20
2018-12-06T04:23:12.460Z,139.57
2018-12-06T04:25:40.908Z,131.87
2018-12-06T04:28:09.359Z,146.53
2018-12-06T04:30:37.868Z,130.90
2018-12-06T04:33:06.340Z,152.83
2018-12-06T04:35:34.763Z,126.87
2018-12-06T04:38:03.404Z,125.43
2018-12-06T04:40:31.877Z,127.90
2018-12-06T04:43:00.413Z,140.23
2018-12-06T04:45:28.942Z,131.33
2018-12-06T04:47:57.581Z,125.83
2018-12-06T04:50:26.171Z,157.67
2018-12-06T04:52:54.731Z,143.90
2018-12-06T04:55:23.169Z,134.37
2018-12-06T04:57:51.778Z,137.27
2018-12-06T05:00:20.386Z,122.73
2018-12-06T05:02:48.843Z,140.00
2018-12-06T05:05:17.566Z,136.57
2018-12-06T05:07:46.122Z,140.13
2018-12-06T05:10:14.619Z,128.67
2018-12-06T05:12:43.256Z,125.90
2018-12-06T05:15:11.828Z,134.90
2018-12-06T05:17:40.411Z,145.97
2018-12-06T05:20:08.887Z,137.20
2018-12-06T05:22:37.378Z,137.97
2018-12-06T05:25:06.427Z,143.83
2018-12-06T05:27:34.896Z,147.67
2018-12-06T05:30:04.149Z,132.63
2018-12-06T05:32:32.679Z,141.03
2018-12-06T05:35:01.248Z,138.17
2018-12-06T05:37:29.735Z,142.83
2018-12-06T05:39:58.213Z,133.47
2018-12-06T05:42:26.688Z,149.77
2018-12-06T05:44:55.304Z,150.80
2018-12-06T05:47:23.919Z,138.13
2018-12-06T05:49:52.376Z,149.67
2018-12-06T05:52:20.888Z,122.20
2018-12-06T05:54:49.345Z,145.93
2018-12-06T05:57:17.793Z,144.70
2018-12-06T05:59:46.284Z,140.80
2018-12-06T06:02:14.715Z,156.47
2018-12-06T06:04:43.179Z,144.83
2018-12-06T06:07:11.699Z,141.70
2018-12-06T06:09:40.136Z,170.60
2018-12-06T06:12:08.569Z,141.87
2018-12-06T06:14:37.143Z,166.30
2018-12-06T06:17:05.744Z,151.17
2018-12-06T06:19:34.183Z,152.20
2018-12-06T06:22:02.664Z,136.10
2018-12-06T06:24:31.171Z,131.87
2018-12-06T06:26:59.624Z,157.87
2018-12-06T06:29:28.122Z,162.77
2018-12-06T06:31:56.740Z,163.80
2018-12-06T06:34:25.234Z,157.07
2018-12-06T06:36:53.739Z,157.50
2018-12-06T06:39:22.329Z,156.83
2018-12-06T06:41:50.820Z,164.60
2018-12-06T06:44:19.356Z,167.83
2018-12-06T06:46:47.840Z,171.83
2018-12-06T06:49:16.264Z,160.00
2018-12-06T06:51:44.779Z,160.87
2018-12-06T06:54:13.229Z,144.90
2018-12-06T06:56:41.765Z,162.17
2018-12-06T06:59:10.235Z,163.30
2018-12-06T07:01:38.821Z,157.30
2018-12-06T07:04:07.260Z,146.00
2018-12-06T07:06:35.773Z,148.97
2018-12-06T07:09:07.197Z,172.73
2018-12-06T07:11:36.234Z,173.37
2018-12-06T07:14:05.021Z,169.50
2018-12-06T07:16:33.504Z,169.00
2018-12-06T07:19:02.036Z,163.13
2018-12-06T07:21:30.530Z,168.20
2018-12-06T07:23:59.017Z,174.87
2018-12-06T07:26:27.649Z,160.33
2018-12-06T07:28:56.156Z,188.27
2018-12-06T07:31:24.633Z,185.23
2018-12-06T07:33:53.277Z,175.87
2018-12-06T07:36:21.887Z,157.57
2018-12-06T07:38:50.310Z,149.70
2018-12-06T07:41:18.822Z,178.03
2018-12-06T07:43:47.316Z,196.60
2018-12-06T07:46:15.802Z,173.83
2018-12-06T07:48:44.402Z,193.43
2018-12-06T07:51:12.919Z,195.30
2018-12-06T07:55:05.637Z,169.47
2018-12-06T07:57:34.116Z,170.87
2018-12-06T08:00:02.600Z,167.30
2018-12-06T08:02:31.105Z,168.93
2018-12-06T08:04:59.536Z,168.27
2018-12-06T08:07:28.116Z,166.40
2018-12-06T08:09:56.820Z,151.37
2018-12-06T08:12:25.324Z,157.27
2018-12-06T08:14:53.791Z,157.13
2018-12-06T08:17:22.341Z,147.30
2018-12-06T08:19:50.775Z,148.30
2018-12-06T08:22:19.240Z,144.47
2018-12-06T08:24:47.779Z,143.67
2018-12-06T08:27:16.324Z,148.13
2018-12-06T08:29:44.822Z,147.17
2018-12-06T08:32:13.291Z,147.43
2018-12-06T08:34:41.774Z,142.97
2018-12-06T08:37:10.507Z,146.13
2018-12-06T08:39:39.018Z,158.20
2018-12-06T08:42:07.469Z,156.90
2018-12-06T08:44:35.907Z,163.13
2018-12-06T08:47:04.490Z,149.17
2018-12-06T08:49:32.941Z,152.33
2018-12-06T08:52:01.409Z,152.60
2018-12-06T08:54:29.911Z,158.77
2018-12-06T08:56:58.391Z,144.70
2018-12-06T08:59:27.002Z,149.07
2018-12-06T09:01:55.575Z,144.37
2018-12-06T09:04:24.035Z,143.57
2018-12-06T09:06:52.875Z,151.87
2018-12-06T09:09:21.443Z,134.37
2018-12-06T09:11:50.017Z,145.57
2018-12-06T09:14:18.493Z,156.80
2018-12-06T09:16:46.992Z,157.67
2018-12-06T09:19:15.464Z,143.23
2018-12-06T09:21:43.933Z,139.57
2018-12-06T09:24:12.447Z,234.57
2018-12-06T09:26:40.996Z,260.87
2018-12-06T09:29:09.431Z,185.23
2018-12-06T09:31:38.004Z,275.47
2018-12-06T09:34:07.459Z,209.77
2018-12-06T09:36:37.249Z,198.90
2018-12-06T09:39:08.983Z,151.03
2018-12-06T09:49:07.359Z,155.40
2018-12-06T09:51:35.816Z,148.30
2018-12-06T09:54:04.516Z,143.80
2018-12-06T09:56:33.029Z,141.77
2018-12-06T09:59:01.537Z,138.13
2018-12-06T10:01:30.011Z,142.33
2018-12-06T10:03:58.536Z,135.60
2018-12-06T10:06:27.042Z,145.83
2018-12-06T10:08:55.519Z,143.70
2018-12-06T10:11:24.087Z,129.10
2018-12-06T10:13:52.521Z,141.63
2018-12-06T10:16:20.968Z,128.77
2018-12-06T10:18:49.610Z,125.50
2018-12-06T10:21:18.067Z,135.57
2018-12-06T10:23:46.544Z,133.60
2018-12-06T10:26:15.087Z,137.00
2018-12-06T10:28:43.549Z,122.87
2018-12-06T10:31:12.037Z,123.43
2018-12-06T10:33:40.551Z,123.97
2018-12-06T10:36:09.049Z,139.23
2018-12-06T10:38:37.549Z,127.13
2018-12-06T10:41:06.071Z,121.43
2018-12-06T10:43:34.541Z,130.27
2018-12-06T10:46:03.077Z,123.83
2018-12-06T10:48:31.688Z,129.07
2018-12-06T10:51:11.387Z,131.83
2018-12-06T10:53:40.124Z,131.70
2018-12-06T10:56:08.590Z,122.03
2018-12-06T10:58:37.060Z,126.80
2018-12-06T11:01:08.570Z,143.43
2018-12-06T11:03:42.386Z,149.33
2018-12-06T11:06:10.901Z,152.70
2018-12-06T11:08:39.369Z,130.17
2018-12-06T11:11:07.908Z,123.93
2018-12-06T11:13:36.430Z,128.80
2018-12-06T11:16:04.918Z,121.67
2018-12-06T11:18:33.334Z,124.53
2018-12-06T11:21:01.986Z,122.37
2018-12-06T11:23:30.504Z,125.23
2018-12-06T11:25:59.006Z,125.17
2018-12-06T11:28:27.517Z,131.53
2018-12-06T11:30:56.008Z,167.57
2018-12-06T11:33:24.523Z,128.03
2018-12-06T11:35:53.024Z,123.07
2018-12-06T11:38:21.498Z,111.17
2018-12-06T11:40:49.991Z,107.40
2018-12-06T11:43:18.502Z,113.90
2018-12-06T11:45:46.979Z,107.60
2018-12-06T11:48:15.391Z,109.67
2018-12-06T11:50:43.895Z,113.40
2018-12-06T11:53:12.602Z,109.60
2018-12-06T11:57:05.286Z,117.07
2018-12-06T11:59:33.780Z,111.27
2018-12-06T12:02:09.767Z,113.10
2018-12-06T12:04:32.841Z,115.93
2018-12-06T12:07:01.301Z,112.47
2018-12-06T12:09:29.809Z,113.07
2018-12-06T12:11:58.388Z,114.43
2018-12-06T12:14:26.848Z,113.90
2018-12-06T12:16:55.441Z,111.77
2018-12-06T12:19:23.971Z,115.77
2018-12-06T12:21:52.404Z,117.40
2018-12-06T12:24:20.877Z,119.97
2018-12-06T12:26:49.407Z,113.27
2018-12-06T12:29:17.902Z,120.03
2018-12-06T12:31:46.356Z,115.60
2018-12-06T12:34:14.886Z,115.10
2018-12-06T12:36:43.334Z,113.93
2018-12-06T12:39:11.776Z,106.70
2018-12-06T12:41:40.276Z,111.10
2018-12-06T12:44:08.955Z,111.67
2018-12-06T12:46:37.428Z,109.77
2018-12-06T12:49:05.977Z,107.83
2018-12-06T12:51:34.592Z,102.40
2018-12-06T12:54:03.032Z,108.93
2018-12-06T12:56:31.633Z,119.10
2018-12-06T12:59:00.084Z,108.87
2018-12-06T13:01:28.535Z,104.77
2018-12-06T13:03:57.044Z,98.27
2018-12-06T13:06:25.606Z,90.47
2018-12-06T13:08:54.016Z,92.80
2018-12-06T13:11:22.499Z,101.43
2018-12-06T13:13:50.956Z,99.37
2018-12-06T13:16:19.579Z,99.03
2018-12-06T13:18:48.216Z,98.50
2018-12-06T13:21:16.889Z,89.93
2018-12-06T13:23:45.323Z,106.93
2018-12-06T13:26:13.832Z,101.00
2018-12-06T13:28:42.763Z,102.33
2018-12-06T13:31:11.356Z,99.37
2018-12-06T13:33:39.855Z,82.83
2018-12-06T13:36:09.304Z,77.23
2018-12-06T13:38:37.916Z,78.37
2018-12-06T13:41:06.391Z,77.37
2018-12-06T13:43:34.863Z,75.27
2018-12-06T13:46:03.498Z,80.97
2018-12-06T13:48:32.091Z,74.70
2018-12-06T13:51:00.572Z,80.80
2018-12-06T13:53:29.022Z,75.00
2018-12-06T13:55:57.694Z,69.10
2018-12-06T13:58:26.157Z,67.43
2018-12-06T14:00:55.062Z,78.43
2018-12-06T14:03:24.082Z,77.30
2018-12-06T14:05:52.508Z,75.23
2018-12-06T14:08:20.942Z,70.17
2018-12-06T14:10:52.599Z,75.10
2018-12-06T14:13:23.605Z,73.37
2018-12-06T14:15:51.573Z,76.33
2018-12-06T14:18:20.060Z,71.37
2018-12-06T14:20:48.496Z,83.67
2018-12-06T14:23:17.026Z,77.10
2018-12-06T14:25:45.556Z,85.73
2018-12-06T14:28:14.015Z,80.80
2018-12-06T14:30:42.508Z,82.37
2018-12-06T14:33:11.027Z,112.97
2018-12-06T14:35:39.519Z,92.17
2018-12-06T14:38:08.165Z,185.23
2018-12-06T14:40:36.828Z,86.50
2018-12-06T14:43:05.450Z,76.73
2018-12-06T14:45:33.911Z,72.17
2018-12-06T14:48:02.562Z,74.67
2018-12-06T14:50:31.026Z,71.87
2018-12-06T14:52:59.430Z,83.40
2018-12-06T14:55:28.037Z,82.80
2018-12-06T14:57:56.643Z,84.27
2018-12-06T15:00:25.092Z,80.17
2018-12-06T15:02:53.601Z,75.50
2018-12-06T15:05:22.066Z,76.30
2018-12-06T15:07:50.517Z,73.10
2018-12-06T15:10:19.016Z,69.43
2018-12-06T15:12:47.478Z,69.87
2018-12-06T15:15:15.942Z,71.50
2018-12-06T15:17:44.427Z,73.03
2018-12-06T15:20:12.869Z,79.97
2018-12-06T15:22:41.332Z,80.07
2018-12-06T15:25:09.956Z,81.07
2018-12-06T15:27:38.821Z,87.43
2018-12-06T15:30:09.590Z,115.30
2018-12-06T15:32:38.114Z,89.83
2018-12-06T15:35:06.932Z,204.87
2018-12-06T15:37:35.406Z,117.67
2018-12-06T15:40:04.885Z,103.20
2018-12-06T15:42:33.343Z,94.03
2018-12-06T15:45:01.803Z,110.23
2018-12-06T15:47:30.328Z,108.40
2018-12-06T15:49:58.790Z,86.00
2018-12-06T15:52:27.264Z,86.40
2018-12-06T15:54:55.740Z,93.27
2018-12-06T15:57:24.249Z,100.57
2018-12-06T15:59:52.740Z,110.73
2018-12-06T16:02:21.287Z,109.50
2018-12-06T16:04:49.743Z,111.70
2018-12-06T16:07:18.183Z,87.67
2018-12-06T16:09:46.715Z,84.60
2018-12-06T16:12:15.175Z,88.50
2018-12-06T16:14:43.775Z,90.13
2018-12-06T16:17:12.313Z,81.50
2018-12-06T16:19:40.795Z,83.40
2018-12-06T16:22:09.248Z,85.20
2018-12-06T16:24:38.053Z,81.13
2018-12-06T16:27:06.537Z,78.60
2018-12-06T16:29:35.121Z,83.87
2018-12-06T16:32:03.788Z,76.57
2018-12-06T16:34:32.313Z,76.30
2018-12-06T16:37:00.787Z,83.00
2018-12-06T16:39:29.435Z,76.53
2018-12-06T16:41:57.932Z,71.47
2018-12-06T16:44:26.371Z,66.70
2018-12-06T16:46:54.920Z,58.07
2018-12-06T16:49:23.366Z,52.93
2018-12-06T16:51:51.975Z,51.20
2018-12-06T16:54:20.560Z,50.43
2018-12-06T16:56:49.063Z,47.87
2018-12-06T16:59:17.498Z,51.00
2018-12-06T17:01:45.977Z,53.13
2018-12-06T17:04:14.420Z,90.77
2018-12-06T17:06:42.944Z,69.60
2018-12-06T17:09:11.615Z,60.90
2018-12-06T17:11:40.086Z,55.87
2018-12-06T17:14:08.565Z,56.47
2018-12-06T17:16:37.241Z,48.87
2018-12-06T17:19:05.893Z,44.93
2018-12-06T17:21:34.356Z,41.80
2018-12-06T17:24:02.914Z,36.17
2018-12-06T17:26:31.484Z,36.27
2018-12-06T17:28:59.972Z,32.23
2018-12-06T17:31:28.520Z,31.20
2018-12-06T17:33:56.981Z,29.77
2018-12-06T17:36:25.508Z,36.17
2018-12-06T17:38:54.040Z,34.77
2018-12-06T17:41:22.476Z,36.43
2018-12-06T17:43:51.053Z,39.87
2018-12-06T17:46:19.692Z,33.47
2018-12-06T17:48:48.168Z,36.40
2018-12-06T17:51:16.876Z,37.03
2018-12-06T17:53:51.968Z,36.97
2018-12-06T17:56:16.109Z,39.07
2018-12-06T17:58:44.740Z,41.40
2018-12-06T18:01:13.351Z,41.73
2018-12-06T18:03:41.980Z,42.40
2018-12-06T18:06:10.734Z,45.60
2018-12-06T18:08:39.218Z,42.00
2018-12-06T18:11:07.655Z,44.27
2018-12-06T18:13:36.094Z,53.43
2018-12-06T18:16:07.854Z,55.00
2018-12-06T18:18:40.410Z,60.33
2018-12-06T18:21:06.827Z,63.07
2018-12-06T18:23:35.486Z,59.30
2018-12-06T18:26:03.997Z,69.17
2018-12-06T18:28:32.612Z,68.60
2018-12-06T18:31:01.100Z,68.93
2018-12-06T18:33:29.744Z,79.47
2018-12-06T18:35:58.339Z,91.70
2018-12-06T18:38:26.884Z,102.37
2018-12-06T18:40:55.347Z,88.23
2018-12-06T18:43:23.909Z,73.57
2018-12-06T18:45:52.524Z,64.90
2018-12-06T18:48:21.080Z,69.37
2018-12-06T18:50:49.532Z,85.13
2018-12-06T18:53:18.004Z,87.73
2018-12-06T18:55:46.501Z,77.40
2018-12-06T18:58:14.982Z,74.23
2018-12-06T19:00:43.498Z,57.50
2018-12-06T19:03:11.999Z,58.40
2018-12-06T19:05:40.480Z,53.97
2018-12-06T19:08:09.026Z,53.20
2018-12-06T19:10:37.570Z,48.43
2018-12-06T19:13:06.490Z,45.63
2018-12-06T19:15:38.148Z,50.33
2018-12-06T19:18:06.629Z,41.83
2018-12-06T19:20:35.123Z,43.70
2018-12-06T19:23:03.735Z,39.60
2018-12-06T19:25:32.177Z,41.20
2018-12-06T19:28:00.801Z,45.20
2018-12-06T19:30:29.321Z,40.87
2018-12-06T19:33:02.837Z,42.23
2018-12-06T19:35:28.354Z,41.23
2018-12-06T19:37:58.123Z,37.87
2018-12-06T19:40:26.699Z,38.27
2018-12-06T19:42:55.144Z,49.20
2018-12-06T19:45:23.724Z,41.13
2018-12-06T19:47:52.195Z,45.67
2018-12-06T19:50:20.785Z,46.27
2018-12-06T19:52:49.311Z,42.20
2018-12-06T19:55:17.765Z,35.30
2018-12-06T19:57:46.254Z,37.70
2018-12-06T20:00:14.839Z,42.37
2018-12-06T20:02:43.309Z,38.97
2018-12-06T20:05:11.807Z,38.77
2018-12-06T20:07:40.324Z,33.53
2018-12-06T20:10:10.163Z,36.20
2018-12-06T20:12:38.644Z,35.50
2018-12-06T20:15:07.675Z,33.53
2018-12-06T20:17:36.111Z,37.97
2018-12-06T20:20:05.172Z,47.23
2018-12-06T20:22:33.814Z,59.43
2018-12-06T20:25:02.290Z,65.50
2018-12-06T20:27:30.735Z,55.70
2018-12-06T20:29:59.300Z,51.90
2018-12-06T20:32:27.894Z,47.50
2018-12-06T20:34:56.409Z,38.43
2018-12-06T20:37:24.924Z,43.47
2018-12-06T20:39:53.411Z,36.77
2018-12-06T20:42:21.899Z,40.30
2018-12-06T20:44:50.455Z,39.37
2018-12-06T20:47:19.923Z,41.20
2018-12-06T20:49:48.401Z,38.63
2018-12-06T20:52:16.993Z,41.33
2018-12-06T20:54:45.454Z,44.13
2018-12-06T20:57:13.885Z,48.93
2018-12-06T20:59:42.420Z,49.83
2018-12-06T21:02:10.926Z,110.60
2018-12-06T21:04:39.488Z,107.40
2018-12-06T21:07:08.026Z,86.03
2018-12-06T21:09:36.958Z,65.20
2018-12-06T21:12:05.403Z,60.13
2018-12-06T21:14:33.928Z,73.50
2018-12-06T21:17:02.632Z,80.70
2018-12-06T21:19:31.051Z,85.00
2018-12-06T21:21:59.543Z,61.80
2018-12-06T21:24:27.981Z,60.37
2018-12-06T21:26:56.424Z,52.93
2018-12-06T21:29:25.071Z,52.53
2018-12-06T21:31:53.745Z,48.90
2018-12-06T21:34:22.213Z,47.83
2018-12-06T21:36:50.828Z,45.83
2018-12-06T21:39:19.408Z,44.73
2018-12-06T21:41:47.887Z,41.63
2018-12-06T21:44:16.552Z,46.80
2018-12-06T21:46:45.024Z,58.23
2018-12-06T21:49:13.628Z,55.13
2018-12-06T21:51:42.211Z,46.77
2018-12-06T21:54:10.763Z,42.43
2018-12-06T21:56:39.221Z,43.17
2018-12-06T21:59:07.660Z,41.10
2018-12-06T22:01:36.128Z,40.07
2018-12-06T22:04:04.729Z,38.90
2018-12-06T22:06:33.370Z,35.03
2018-12-06T22:09:01.822Z,31.40
2018-12-06T22:12:33.139Z,31.13
2018-12-06T22:15:01.612Z,32.80
2018-12-06T22:17:30.152Z,33.57
2018-12-06T22:19:58.639Z,30.23
2018-12-06T22:22:27.080Z,28.47
2018-12-06T22:24:55.550Z,25.63
2018-12-06T22:27:24.055Z,30.53
2018-12-06T22:29:52.500Z,32.70
2018-12-06T22:32:20.940Z,29.10
2018-12-06T22:34:49.717Z,30.30
2018-12-06T22:37:18.145Z,30.83
2018-12-06T22:39:46.663Z,33.97
2018-12-06T22:42:15.253Z,34.30
2018-12-06T22:44:43.693Z,43.17
2018-12-06T22:47:12.154Z,42.77
2018-12-06T22:49:40.755Z,39.97
2018-12-06T22:52:09.216Z,40.97
2018-12-06T22:54:37.803Z,37.87
2018-12-06T22:57:06.286Z,34.13
2018-12-06T22:59:34.777Z,33.57
2018-12-06T23:02:03.393Z,35.23
2018-12-06T23:04:32.011Z,38.87
2018-12-06T23:07:00.489Z,31.57
2018-12-06T23:09:28.909Z,30.40
2018-12-06T23:11:57.478Z,32.30
2018-12-06T23:14:25.896Z,34.10
2018-12-06T23:16:54.672Z,29.20
2018-12-06T23:19:23.240Z,29.60
2018-12-06T23:21:51.741Z,29.40
2018-12-06T23:24:20.343Z,30.37
2018-12-06T23:26:48.891Z,28.17
2018-12-06T23:29:17.372Z,26.20
2018-12-06T23:31:45.833Z,28.17
2018-12-06T23:34:14.349Z,25.93
2018-12-06T23:36:42.952Z,23.47
2018-12-06T23:39:11.395Z,24.63
2018-12-06T23:41:39.876Z,25.57
2018-12-06T23:44:08.304Z,26.00
2018-12-06T23:46:36.771Z,30.97
2018-12-06T23:49:05.298Z,35.97
2018-12-06T23:51:38.420Z,33.13
2018-12-06T23:54:07.075Z,22.83
2018-12-06T23:56:35.588Z,23.20
2018-12-06T23:59:04.239Z,23.43
